sensor_id;sensor_type;location;lat;lon;timestamp;pressure;altitude;pressure_sealevel;temperature;humidity
39177;BME280;24904;52.208;21.192;2024-02-15T00:02:38;101133.63;;;6.41;60.03
39177;BME280;24904;52.208;21.192;2024-02-15T00:07:41;101137.54;;;6.38;60.19
39177;BME280;24904;52.208;21.192;2024-02-15T00:12:46;101135.23;;;6.37;60.21
39177;BME280;24904;52.208;21.192;2024-02-15T00:17:50;101131.73;;;6.37;60.33
39177;BME280;24904;52.208;21.192;2024-02-15T00:22:53;101134.94;;;6.39;60.36
39177;BME280;24904;52.208;21.192;2024-02-15T00:27:58;101129.35;;;6.39;60.46
39177;BME280;24904;52.208;21.192;2024-02-15T00:33:02;101129.55;;;6.38;60.72
39177;BME280;24904;52.208;21.192;2024-02-15T00:38:05;101127.13;;;6.36;60.97
39177;BME280;24904;52.208;21.192;2024-02-15T00:43:09;101126.43;;;6.34;60.86
39177;BME280;24904;52.208;21.192;2024-02-15T00:48:12;101128.29;;;6.34;60.77
39177;BME280;24904;52.208;21.192;2024-02-15T00:53:16;101129.34;;;6.32;60.61
39177;BME280;24904;52.208;21.192;2024-02-15T00:58:19;101129.23;;;6.29;60.71
39177;BME280;24904;52.208;21.192;2024-02-15T01:03:23;101129.61;;;6.30;60.69
39177;BME280;24904;52.208;21.192;2024-02-15T01:08:26;101125.64;;;6.29;61.03
39177;BME280;24904;52.208;21.192;2024-02-15T01:13:29;101119.27;;;6.29;60.81
39177;BME280;24904;52.208;21.192;2024-02-15T01:18:33;101121.75;;;6.29;60.72
39177;BME280;24904;52.208;21.192;2024-02-15T01:23:36;101121.50;;;6.27;60.85
39177;BME280;24904;52.208;21.192;2024-02-15T01:28:39;101116.85;;;6.23;60.78
39177;BME280;24904;52.208;21.192;2024-02-15T01:33:45;101117.80;;;6.21;60.98
39177;BME280;24904;52.208;21.192;2024-02-15T01:38:48;101117.50;;;6.18;60.98
39177;BME280;24904;52.208;21.192;2024-02-15T01:43:51;101114.29;;;6.18;61.14
39177;BME280;24904;52.208;21.192;2024-02-15T01:48:54;101104.83;;;6.20;61.09
39177;BME280;24904;52.208;21.192;2024-02-15T01:53:58;101103.23;;;6.19;61.12
39177;BME280;24904;52.208;21.192;2024-02-15T01:59:03;101099.02;;;6.18;61.18
39177;BME280;24904;52.208;21.192;2024-02-15T02:04:07;101097.64;;;6.18;61.23
39177;BME280;24904;52.208;21.192;2024-02-15T02:09:12;101093.89;;;6.18;61.15
39177;BME280;24904;52.208;21.192;2024-02-15T02:14:16;101090.36;;;6.16;61.10
39177;BME280;24904;52.208;21.192;2024-02-15T02:19:20;101087.31;;;6.13;61.45
39177;BME280;24904;52.208;21.192;2024-02-15T02:24:23;101087.45;;;6.13;61.42
39177;BME280;24904;52.208;21.192;2024-02-15T02:29:27;101087.91;;;6.15;61.30
39177;BME280;24904;52.208;21.192;2024-02-15T02:34:32;101083.59;;;6.12;61.42
39177;BME280;24904;52.208;21.192;2024-02-15T02:39:35;101076.30;;;6.10;61.70
39177;BME280;24904;52.208;21.192;2024-02-15T02:44:38;101082.52;;;6.10;61.65
39177;BME280;24904;52.208;21.192;2024-02-15T02:49:42;101083.05;;;6.06;61.54
39177;BME280;24904;52.208;21.192;2024-02-15T02:54:45;101088.11;;;6.05;61.73
39177;BME280;24904;52.208;21.192;2024-02-15T02:59:48;101085.39;;;6.05;61.86
39177;BME280;24904;52.208;21.192;2024-02-15T03:04:51;101090.82;;;6.05;61.85
39177;BME280;24904;52.208;21.192;2024-02-15T03:09:55;101088.05;;;6.05;61.96
39177;BME280;24904;52.208;21.192;2024-02-15T03:14:58;101082.56;;;6.04;62.01
39177;BME280;24904;52.208;21.192;2024-02-15T03:20:01;101083.15;;;6.05;61.96
39177;BME280;24904;52.208;21.192;2024-02-15T03:25:13;101089.95;;;6.09;62.11
39177;BME280;24904;52.208;21.192;2024-02-15T03:30:16;101093.50;;;6.08;62.05
39177;BME280;24904;52.208;21.192;2024-02-15T03:35:20;101096.01;;;6.08;62.13
39177;BME280;24904;52.208;21.192;2024-02-15T03:40:24;101095.22;;;6.10;62.28
39177;BME280;24904;52.208;21.192;2024-02-15T03:45:28;101098.92;;;6.13;62.11
39177;BME280;24904;52.208;21.192;2024-02-15T03:50:31;101093.74;;;6.10;62.00
39177;BME280;24904;52.208;21.192;2024-02-15T03:55:34;101094.64;;;6.09;62.20
39177;BME280;24904;52.208;21.192;2024-02-15T04:00:38;101094.21;;;6.08;62.40
39177;BME280;24904;52.208;21.192;2024-02-15T04:05:42;101089.27;;;6.09;62.37
39177;BME280;24904;52.208;21.192;2024-02-15T04:10:45;101089.54;;;6.10;62.26
39177;BME280;24904;52.208;21.192;2024-02-15T04:15:49;101086.40;;;6.10;62.52
39177;BME280;24904;52.208;21.192;2024-02-15T04:20:53;101083.14;;;6.12;62.23
39177;BME280;24904;52.208;21.192;2024-02-15T04:25:56;101084.10;;;6.13;62.32
39177;BME280;24904;52.208;21.192;2024-02-15T04:30:59;101080.59;;;6.10;62.22
39177;BME280;24904;52.208;21.192;2024-02-15T04:36:02;101085.16;;;6.08;62.44
39177;BME280;24904;52.208;21.192;2024-02-15T04:41:08;101081.48;;;6.08;62.39
39177;BME280;24904;52.208;21.192;2024-02-15T04:46:12;101087.13;;;6.06;62.64
39177;BME280;24904;52.208;21.192;2024-02-15T04:51:16;101089.69;;;6.07;62.46
39177;BME280;24904;52.208;21.192;2024-02-15T04:56:21;101090.94;;;6.08;62.36
39177;BME280;24904;52.208;21.192;2024-02-15T05:01:25;101092.66;;;6.09;62.56
39177;BME280;24904;52.208;21.192;2024-02-15T05:06:28;101094.14;;;6.08;62.45
39177;BME280;24904;52.208;21.192;2024-02-15T05:11:31;101088.01;;;6.09;62.40
39177;BME280;24904;52.208;21.192;2024-02-15T05:16:37;101089.48;;;6.09;62.63
39177;BME280;24904;52.208;21.192;2024-02-15T05:21:44;101093.11;;;6.10;62.53
39177;BME280;24904;52.208;21.192;2024-02-15T05:26:48;101091.56;;;6.10;62.49
39177;BME280;24904;52.208;21.192;2024-02-15T05:31:52;101093.27;;;6.08;62.63
39177;BME280;24904;52.208;21.192;2024-02-15T05:36:57;101094.98;;;6.08;62.39
39177;BME280;24904;52.208;21.192;2024-02-15T05:42:00;101096.96;;;6.09;62.51
39177;BME280;24904;52.208;21.192;2024-02-15T05:47:03;101095.98;;;6.08;62.57
39177;BME280;24904;52.208;21.192;2024-02-15T05:52:07;101100.65;;;6.04;62.68
39177;BME280;24904;52.208;21.192;2024-02-15T05:57:11;101104.07;;;6.06;62.79
39177;BME280;24904;52.208;21.192;2024-02-15T06:02:14;101104.23;;;6.07;62.74
39177;BME280;24904;52.208;21.192;2024-02-15T06:07:17;101109.69;;;6.10;62.65
39177;BME280;24904;52.208;21.192;2024-02-15T06:12:20;101110.02;;;6.08;62.65
39177;BME280;24904;52.208;21.192;2024-02-15T06:17:24;101117.48;;;6.06;62.77
39177;BME280;24904;52.208;21.192;2024-02-15T06:22:27;101124.27;;;6.06;62.80
39177;BME280;24904;52.208;21.192;2024-02-15T06:27:31;101127.05;;;6.07;62.96
39177;BME280;24904;52.208;21.192;2024-02-15T06:32:34;101134.59;;;6.09;62.75
39177;BME280;24904;52.208;21.192;2024-02-15T06:37:55;101138.16;;;6.07;62.85
39177;BME280;24904;52.208;21.192;2024-02-15T06:43:17;101139.21;;;6.08;63.36
39177;BME280;24904;52.208;21.192;2024-02-15T06:48:20;101141.31;;;6.10;63.52
39177;BME280;24904;52.208;21.192;2024-02-15T06:53:23;101143.36;;;6.12;63.69
39177;BME280;24904;52.208;21.192;2024-02-15T06:58:26;101141.31;;;6.15;63.96
39177;BME280;24904;52.208;21.192;2024-02-15T07:03:30;101147.73;;;6.15;64.20
39177;BME280;24904;52.208;21.192;2024-02-15T07:08:34;101155.23;;;6.11;64.39
39177;BME280;24904;52.208;21.192;2024-02-15T07:13:37;101152.93;;;6.06;64.63
39177;BME280;24904;52.208;21.192;2024-02-15T07:18:40;101150.89;;;6.06;65.05
39177;BME280;24904;52.208;21.192;2024-02-15T07:23:44;101153.23;;;6.08;65.38
39177;BME280;24904;52.208;21.192;2024-02-15T07:28:54;101150.25;;;6.07;65.57
39177;BME280;24904;52.208;21.192;2024-02-15T10:38:26;101163.02;;;7.24;72.62
39177;BME280;24904;52.208;21.192;2024-02-15T10:43:29;101158.09;;;7.28;72.92
39177;BME280;24904;52.208;21.192;2024-02-15T10:48:33;101160.13;;;7.32;72.98
39177;BME280;24904;52.208;21.192;2024-02-15T10:53:42;101148.89;;;7.38;73.19
39177;BME280;24904;52.208;21.192;2024-02-15T10:58:51;101142.92;;;7.47;73.28
39177;BME280;24904;52.208;21.192;2024-02-15T11:04:00;101142.70;;;7.57;73.28
39177;BME280;24904;52.208;21.192;2024-02-15T11:09:10;101143.48;;;7.69;72.96
39177;BME280;24904;52.208;21.192;2024-02-15T11:14:27;101142.80;;;7.76;73.29
39177;BME280;24904;52.208;21.192;2024-02-15T11:19:47;101136.14;;;7.85;73.30
39177;BME280;24904;52.208;21.192;2024-02-15T11:24:51;101136.66;;;7.86;73.44
39177;BME280;24904;52.208;21.192;2024-02-15T11:29:55;101130.36;;;7.90;73.30
39177;BME280;24904;52.208;21.192;2024-02-15T11:35:03;101124.45;;;7.92;73.36
39177;BME280;24904;52.208;21.192;2024-02-15T11:43:53;101117.33;;;8.05;73.69
39177;BME280;24904;52.208;21.192;2024-02-15T11:49:00;101112.80;;;8.15;73.66
39177;BME280;24904;52.208;21.192;2024-02-15T11:54:07;101106.02;;;8.26;73.60
39177;BME280;24904;52.208;21.192;2024-02-15T11:59:12;101104.95;;;8.36;73.83
39177;BME280;24904;52.208;21.192;2024-02-15T12:04:31;101106.84;;;8.51;73.78
39177;BME280;24904;52.208;21.192;2024-02-15T12:09:59;101102.74;;;8.62;73.54
39177;BME280;24904;52.208;21.192;2024-02-15T12:15:21;101098.47;;;8.73;73.70
39177;BME280;24904;52.208;21.192;2024-02-15T12:20:42;101100.31;;;8.75;73.53
39177;BME280;24904;52.208;21.192;2024-02-15T12:25:52;101096.08;;;8.77;73.61
39177;BME280;24904;52.208;21.192;2024-02-15T12:30:56;101092.45;;;8.76;73.55
39177;BME280;24904;52.208;21.192;2024-02-15T12:36:06;101094.42;;;8.80;73.60
39177;BME280;24904;52.208;21.192;2024-02-15T12:41:18;101093.78;;;8.85;73.95
39177;BME280;24904;52.208;21.192;2024-02-15T12:46:21;101097.08;;;8.85;73.39
39177;BME280;24904;52.208;21.192;2024-02-15T12:51:24;101099.89;;;8.87;73.41
39177;BME280;24904;52.208;21.192;2024-02-15T12:56:27;101100.79;;;8.88;73.52
39177;BME280;24904;52.208;21.192;2024-02-15T13:01:30;101107.95;;;8.89;73.44
39177;BME280;24904;52.208;21.192;2024-02-15T13:06:33;101103.13;;;8.94;73.31
39177;BME280;24904;52.208;21.192;2024-02-15T13:11:37;101103.16;;;8.98;73.18
39177;BME280;24904;52.208;21.192;2024-02-15T13:16:40;101100.94;;;9.00;73.18
39177;BME280;24904;52.208;21.192;2024-02-15T13:21:45;101099.09;;;9.03;73.46
39177;BME280;24904;52.208;21.192;2024-02-15T13:26:55;101092.20;;;9.05;73.15
39177;BME280;24904;52.208;21.192;2024-02-15T13:31:58;101089.31;;;9.06;72.97
39177;BME280;24904;52.208;21.192;2024-02-15T13:37:02;101084.61;;;9.05;72.99
39177;BME280;24904;52.208;21.192;2024-02-15T13:42:06;101081.79;;;9.08;72.90
39177;BME280;24904;52.208;21.192;2024-02-15T13:47:09;101082.92;;;9.13;72.67
39177;BME280;24904;52.208;21.192;2024-02-15T13:52:14;101086.13;;;9.14;72.64
39177;BME280;24904;52.208;21.192;2024-02-15T13:57:18;101082.52;;;9.17;72.49
39177;BME280;24904;52.208;21.192;2024-02-15T14:02:21;101079.39;;;9.20;72.34
39177;BME280;24904;52.208;21.192;2024-02-15T14:07:24;101069.94;;;9.21;72.07
39177;BME280;24904;52.208;21.192;2024-02-15T14:12:27;101070.39;;;9.14;71.72
39177;BME280;24904;52.208;21.192;2024-02-15T14:17:30;101070.38;;;9.14;71.92
39177;BME280;24904;52.208;21.192;2024-02-15T14:22:33;101074.66;;;9.18;71.95
39177;BME280;24904;52.208;21.192;2024-02-15T14:27:36;101084.30;;;9.22;71.84
39177;BME280;24904;52.208;21.192;2024-02-15T14:32:40;101087.88;;;9.18;71.48
39177;BME280;24904;52.208;21.192;2024-02-15T14:38:03;101093.61;;;9.16;71.61
39177;BME280;24904;52.208;21.192;2024-02-15T14:43:08;101092.94;;;9.14;71.41
39177;BME280;24904;52.208;21.192;2024-02-15T14:48:14;101088.67;;;9.14;71.48
39177;BME280;24904;52.208;21.192;2024-02-15T14:53:19;101084.52;;;9.11;71.25
39177;BME280;24904;52.208;21.192;2024-02-15T14:58:23;101092.05;;;9.11;71.19
39177;BME280;24904;52.208;21.192;2024-02-15T15:03:30;101095.86;;;9.10;71.31
39177;BME280;24904;52.208;21.192;2024-02-15T15:08:34;101099.04;;;9.09;71.01
39177;BME280;24904;52.208;21.192;2024-02-15T15:13:55;101102.48;;;9.06;71.12
39177;BME280;24904;52.208;21.192;2024-02-15T15:18:58;101103.04;;;9.04;70.94
39177;BME280;24904;52.208;21.192;2024-02-15T15:24:01;101098.38;;;9.00;70.95
39177;BME280;24904;52.208;21.192;2024-02-15T15:29:04;101099.11;;;8.95;70.75
39177;BME280;24904;52.208;21.192;2024-02-15T15:34:09;101102.65;;;8.93;70.61
39177;BME280;24904;52.208;21.192;2024-02-15T15:39:13;101097.27;;;8.88;70.69
39177;BME280;24904;52.208;21.192;2024-02-15T15:44:18;101099.02;;;8.84;70.82
39177;BME280;24904;52.208;21.192;2024-02-15T15:49:21;101101.39;;;8.83;70.95
39177;BME280;24904;52.208;21.192;2024-02-15T15:54:26;101102.14;;;8.79;70.93
39177;BME280;24904;52.208;21.192;2024-02-15T15:59:29;101105.56;;;8.75;71.09
39177;BME280;24904;52.208;21.192;2024-02-15T16:04:32;101113.86;;;8.73;70.84
39177;BME280;24904;52.208;21.192;2024-02-15T16:09:35;101122.77;;;8.71;70.96
39177;BME280;24904;52.208;21.192;2024-02-15T16:14:38;101125.90;;;8.71;70.98
39177;BME280;24904;52.208;21.192;2024-02-15T16:19:41;101123.27;;;8.69;70.87
39177;BME280;24904;52.208;21.192;2024-02-15T16:24:44;101130.27;;;8.68;70.86
39177;BME280;24904;52.208;21.192;2024-02-15T16:29:49;101126.68;;;8.68;71.21
39177;BME280;24904;52.208;21.192;2024-02-15T16:34:52;101130.52;;;8.65;71.25
39177;BME280;24904;52.208;21.192;2024-02-15T16:39:57;101137.98;;;8.64;71.11
39177;BME280;24904;52.208;21.192;2024-02-15T16:45:00;101135.13;;;8.68;71.15
39177;BME280;24904;52.208;21.192;2024-02-15T16:50:03;101135.08;;;8.66;71.13
39177;BME280;24904;52.208;21.192;2024-02-15T16:55:10;101136.01;;;8.66;71.03
39177;BME280;24904;52.208;21.192;2024-02-15T17:00:15;101140.34;;;8.64;71.20
39177;BME280;24904;52.208;21.192;2024-02-15T17:05:20;101143.39;;;8.64;71.05
39177;BME280;24904;52.208;21.192;2024-02-15T17:10:24;101146.80;;;8.63;71.04
39177;BME280;24904;52.208;21.192;2024-02-15T17:15:27;101146.66;;;8.63;70.90
39177;BME280;24904;52.208;21.192;2024-02-15T17:20:30;101152.44;;;8.60;70.81
39177;BME280;24904;52.208;21.192;2024-02-15T17:25:34;101159.03;;;8.61;70.67
39177;BME280;24904;52.208;21.192;2024-02-15T17:30:38;101162.11;;;8.60;70.90
39177;BME280;24904;52.208;21.192;2024-02-15T17:35:43;101160.13;;;8.59;70.77
39177;BME280;24904;52.208;21.192;2024-02-15T17:40:46;101157.19;;;8.60;70.76
39177;BME280;24904;52.208;21.192;2024-02-15T17:45:51;101158.86;;;8.61;70.56
39177;BME280;24904;52.208;21.192;2024-02-15T17:50:54;101164.14;;;8.62;70.54
39177;BME280;24904;52.208;21.192;2024-02-15T17:55:57;101172.54;;;8.60;70.52
39177;BME280;24904;52.208;21.192;2024-02-15T18:01:01;101176.58;;;8.59;70.34
39177;BME280;24904;52.208;21.192;2024-02-15T18:06:05;101172.70;;;8.60;70.40
39177;BME280;24904;52.208;21.192;2024-02-15T18:11:09;101177.80;;;8.61;70.41
39177;BME280;24904;52.208;21.192;2024-02-15T18:16:12;101172.16;;;8.61;70.44
39177;BME280;24904;52.208;21.192;2024-02-15T18:21:17;101168.27;;;8.61;70.23
39177;BME280;24904;52.208;21.192;2024-02-15T18:26:20;101163.16;;;8.60;70.25
39177;BME280;24904;52.208;21.192;2024-02-15T18:31:23;101164.52;;;8.61;70.08
39177;BME280;24904;52.208;21.192;2024-02-15T18:36:26;101167.23;;;8.63;70.12
39177;BME280;24904;52.208;21.192;2024-02-15T18:41:29;101158.91;;;8.62;70.03
39177;BME280;24904;52.208;21.192;2024-02-15T18:46:32;101159.98;;;8.62;70.16
39177;BME280;24904;52.208;21.192;2024-02-15T18:51:37;101164.31;;;8.63;69.92
39177;BME280;24904;52.208;21.192;2024-02-15T18:56:40;101167.55;;;8.61;69.71
39177;BME280;24904;52.208;21.192;2024-02-15T19:01:44;101170.64;;;8.60;69.90
39177;BME280;24904;52.208;21.192;2024-02-15T19:06:47;101169.00;;;8.60;69.82
39177;BME280;24904;52.208;21.192;2024-02-15T19:11:50;101166.34;;;8.59;70.00
39177;BME280;24904;52.208;21.192;2024-02-15T19:16:55;101168.61;;;8.60;69.89
39177;BME280;24904;52.208;21.192;2024-02-15T19:21:58;101176.59;;;8.63;69.71
39177;BME280;24904;52.208;21.192;2024-02-15T19:27:02;101177.02;;;8.61;69.66
39177;BME280;24904;52.208;21.192;2024-02-15T19:32:06;101174.45;;;8.59;69.56
39177;BME280;24904;52.208;21.192;2024-02-15T19:37:09;101165.21;;;8.59;69.69
39177;BME280;24904;52.208;21.192;2024-02-15T19:42:12;101165.54;;;8.57;69.61
39177;BME280;24904;52.208;21.192;2024-02-15T19:47:15;101166.98;;;8.58;69.66
39177;BME280;24904;52.208;21.192;2024-02-15T19:52:20;101163.46;;;8.60;69.82
39177;BME280;24904;52.208;21.192;2024-02-15T19:57:24;101171.35;;;8.60;69.53
39177;BME280;24904;52.208;21.192;2024-02-15T20:02:27;101173.52;;;8.58;69.52
39177;BME280;24904;52.208;21.192;2024-02-15T20:07:30;101171.72;;;8.57;69.63
39177;BME280;24904;52.208;21.192;2024-02-15T20:12:34;101171.39;;;8.57;69.53
39177;BME280;24904;52.208;21.192;2024-02-15T20:17:38;101168.16;;;8.56;69.66
39177;BME280;24904;52.208;21.192;2024-02-15T20:22:41;101165.38;;;8.52;69.65
39177;BME280;24904;52.208;21.192;2024-02-15T20:27:45;101165.30;;;8.49;69.39
39177;BME280;24904;52.208;21.192;2024-02-15T20:32:48;101163.23;;;8.46;69.46
39177;BME280;24904;52.208;21.192;2024-02-15T20:37:51;101159.74;;;8.43;69.54
39177;BME280;24904;52.208;21.192;2024-02-15T20:42:55;101161.23;;;8.40;69.52
39177;BME280;24904;52.208;21.192;2024-02-15T20:47:58;101158.36;;;8.38;69.55
39177;BME280;24904;52.208;21.192;2024-02-15T20:53:02;101159.16;;;8.39;69.65
39177;BME280;24904;52.208;21.192;2024-02-15T20:58:05;101156.92;;;8.40;69.70
39177;BME280;24904;52.208;21.192;2024-02-15T21:03:10;101155.73;;;8.42;69.79
39177;BME280;24904;52.208;21.192;2024-02-15T21:08:13;101150.63;;;8.41;69.63
39177;BME280;24904;52.208;21.192;2024-02-15T21:13:18;101149.87;;;8.40;69.90
39177;BME280;24904;52.208;21.192;2024-02-15T21:18:22;101148.64;;;8.38;69.64
39177;BME280;24904;52.208;21.192;2024-02-15T21:23:27;101147.34;;;8.39;69.86
39177;BME280;24904;52.208;21.192;2024-02-15T21:28:30;101149.33;;;8.37;69.77
39177;BME280;24904;52.208;21.192;2024-02-15T21:33:33;101149.60;;;8.38;69.71
39177;BME280;24904;52.208;21.192;2024-02-15T21:38:37;101150.55;;;8.39;69.81
39177;BME280;24904;52.208;21.192;2024-02-15T21:43:41;101146.95;;;8.39;69.97
39177;BME280;24904;52.208;21.192;2024-02-15T21:48:46;101147.50;;;8.39;69.61
39177;BME280;24904;52.208;21.192;2024-02-15T21:53:50;101149.79;;;8.39;69.73
39177;BME280;24904;52.208;21.192;2024-02-15T21:58:53;101155.48;;;8.39;69.73
39177;BME280;24904;52.208;21.192;2024-02-15T22:03:56;101156.00;;;8.38;69.56
39177;BME280;24904;52.208;21.192;2024-02-15T22:08:59;101149.83;;;8.36;69.73
39177;BME280;24904;52.208;21.192;2024-02-15T22:14:02;101149.46;;;8.34;69.53
39177;BME280;24904;52.208;21.192;2024-02-15T22:19:05;101152.86;;;8.31;69.65
39177;BME280;24904;52.208;21.192;2024-02-15T22:24:10;101146.27;;;8.30;69.56
39177;BME280;24904;52.208;21.192;2024-02-15T22:29:13;101153.08;;;8.28;69.61
39177;BME280;24904;52.208;21.192;2024-02-15T22:34:16;101153.55;;;8.24;69.70
39177;BME280;24904;52.208;21.192;2024-02-15T22:39:20;101157.09;;;8.22;69.69
39177;BME280;24904;52.208;21.192;2024-02-15T22:44:23;101159.62;;;8.20;69.77
39177;BME280;24904;52.208;21.192;2024-02-15T22:49:26;101161.45;;;8.21;69.71
39177;BME280;24904;52.208;21.192;2024-02-15T22:54:29;101163.98;;;8.22;69.78
39177;BME280;24904;52.208;21.192;2024-02-15T22:59:33;101167.32;;;8.24;69.73
39177;BME280;24904;52.208;21.192;2024-02-15T23:04:36;101168.12;;;8.22;69.87
39177;BME280;24904;52.208;21.192;2024-02-15T23:09:40;101167.44;;;8.20;69.99
39177;BME280;24904;52.208;21.192;2024-02-15T23:14:45;101165.98;;;8.19;69.96
39177;BME280;24904;52.208;21.192;2024-02-15T23:19:48;101168.55;;;8.19;69.89
39177;BME280;24904;52.208;21.192;2024-02-15T23:24:51;101167.73;;;8.17;70.05
39177;BME280;24904;52.208;21.192;2024-02-15T23:29:58;101175.70;;;8.18;70.07
39177;BME280;24904;52.208;21.192;2024-02-15T23:35:01;101176.58;;;8.16;70.12
39177;BME280;24904;52.208;21.192;2024-02-15T23:40:07;101178.41;;;8.15;70.27
39177;BME280;24904;52.208;21.192;2024-02-15T23:45:24;101184.24;;;8.16;70.15
39177;BME280;24904;52.208;21.192;2024-02-15T23:50:27;101187.23;;;8.14;70.08
39177;BME280;24904;52.208;21.192;2024-02-15T23:55:33;101191.83;;;8.12;70.01
